Time;durP1;ratioP1;P1;durP2;ratioP2;P2;SDS_P1;SDS_P2;PMS_P1;PMS_P2;Temp;Humidity;BMP_temperature;BMP_pressure;BME280_temperature;BME280_humidity;BME280_pressure;Samples;Min_cycle;Max_cycle;Signal;HPM_P1;HPM_P2
2021/12/28 00:00:07;;;;;;;22.42;13.32;;;1.60;99.90;;;;;;5013793;28;20049;-74
2021/12/28 00:02:38;;;;;;;26.63;13.73;;;1.60;99.90;;;;;;5015899;28;20058;-74
2021/12/28 00:05:20;;;;;;;22.08;13.00;;;1.60;99.90;;;;;;5014415;28;20049;-74
2021/12/28 00:07:48;;;;;;;23.05;13.18;;;1.60;99.90;;;;;;5014011;28;20571;-74
2021/12/28 00:10:26;;;;;;;24.77;13.30;;;1.50;99.90;;;;;;5013830;28;20046;-74
2021/12/28 00:12:57;;;;;;;26.13;13.25;;;1.50;99.90;;;;;;5014061;28;20053;-74
2021/12/28 00:18:17;;;;;;;27.20;13.43;;;1.60;99.90;;;;;;5013963;28;20042;-74
2021/12/28 00:20:52;;;;;;;28.33;14.38;;;1.50;99.90;;;;;;5014088;28;20047;-74
2021/12/28 00:23:27;;;;;;;25.50;14.40;;;1.60;99.90;;;;;;5014218;28;20100;-74
2021/12/28 00:26:04;;;;;;;28.27;14.80;;;1.70;99.90;;;;;;5015706;28;20037;-74
2021/12/28 00:28:32;;;;;;;29.27;13.55;;;1.70;99.90;;;;;;5013232;28;20077;-74
2021/12/28 00:31:05;;;;;;;25.63;13.13;;;1.60;99.90;;;;;;5014012;28;20052;-74
2021/12/28 00:33:34;;;;;;;32.05;15.10;;;1.70;99.90;;;;;;5015855;28;20112;-74
2021/12/28 00:36:04;;;;;;;29.98;14.75;;;1.70;99.90;;;;;;5013728;28;20506;-73
2021/12/28 00:38:34;;;;;;;31.38;13.70;;;1.60;99.90;;;;;;5014678;28;20092;-73
2021/12/28 00:41:12;;;;;;;33.00;14.82;;;1.70;99.90;;;;;;5014924;28;20042;-73
2021/12/28 00:44:30;;;;;;;33.33;14.93;;;1.70;99.90;;;;;;5012945;28;20470;-74
2021/12/28 00:47:01;;;;;;;32.58;15.05;;;1.80;99.90;;;;;;5014041;28;20050;-74
2021/12/28 00:49:28;;;;;;;30.67;14.88;;;1.70;99.90;;;;;;5013283;28;20104;-73
2021/12/28 00:52:04;;;;;;;32.53;15.48;;;1.70;99.90;;;;;;5013006;28;20042;-73
2021/12/28 00:54:32;;;;;;;29.30;14.68;;;1.70;99.90;;;;;;5013182;28;20045;-73
2021/12/28 00:57:25;;;;;;;32.38;15.30;;;1.70;99.90;;;;;;5012728;28;20511;-74
2021/12/28 00:59:52;;;;;;;29.75;13.25;;;1.90;99.90;;;;;;5012536;28;20041;-74
2021/12/28 01:02:28;;;;;;;30.73;14.90;;;1.80;99.90;;;;;;5014791;28;20049;-74
2021/12/28 01:05:01;;;;;;;29.67;13.82;;;1.70;99.90;;;;;;5014394;28;20042;-74
2021/12/28 01:07:33;;;;;;;28.25;13.75;;;1.80;99.90;;;;;;5013105;28;20518;-73
2021/12/28 01:10:08;;;;;;;31.60;14.57;;;1.80;99.90;;;;;;5014989;28;20117;-74
2021/12/28 01:12:36;;;;;;;29.92;14.18;;;1.80;99.90;;;;;;5012421;28;20062;-74
2021/12/28 01:15:14;;;;;;;27.88;13.93;;;1.80;99.90;;;;;;5014295;28;20099;-74
2021/12/28 01:17:41;;;;;;;27.70;13.38;;;1.80;99.90;;;;;;5013182;28;20073;-74
2021/12/28 01:20:14;;;;;;;27.60;13.32;;;1.70;99.90;;;;;;5014202;28;20489;-74
2021/12/28 01:22:49;;;;;;;29.20;13.70;;;1.70;99.90;;;;;;5012826;28;20563;-74
2021/12/28 01:25:17;;;;;;;26.60;14.25;;;1.70;99.90;;;;;;5014085;28;20088;-74
2021/12/28 01:27:53;;;;;;;26.98;13.75;;;1.60;99.90;;;;;;5012532;28;20515;-74
2021/12/28 01:30:28;;;;;;;28.08;13.13;;;1.60;99.90;;;;;;5012330;28;20518;-74
2021/12/28 01:33:13;;;;;;;30.88;13.93;;;1.70;99.90;;;;;;5014108;28;20113;-74
2021/12/28 01:35:41;;;;;;;29.58;14.10;;;1.70;99.90;;;;;;5012591;28;20416;-74
2021/12/28 01:38:21;;;;;;;27.73;14.70;;;1.60;99.90;;;;;;5013803;28;20049;-74
2021/12/28 01:40:54;;;;;;;33.38;15.13;;;1.70;99.90;;;;;;4995876;28;20096;-74
2021/12/28 01:43:29;;;;;;;30.38;15.25;;;1.70;99.90;;;;;;5012613;28;20089;-74
2021/12/28 01:46:01;;;;;;;31.13;15.07;;;1.70;99.90;;;;;;5013952;28;20559;-74
2021/12/28 01:48:44;;;;;;;32.25;15.65;;;1.80;99.90;;;;;;5014162;28;20404;-74
2021/12/28 01:51:14;;;;;;;34.00;14.93;;;1.70;99.90;;;;;;5027470;28;20053;-74
2021/12/28 01:54:01;;;;;;;34.45;16.38;;;1.60;99.90;;;;;;5032011;28;20475;-74
2021/12/28 01:56:37;;;;;;;34.35;16.88;;;1.70;99.90;;;;;;5031848;28;20171;-74
2021/12/28 01:59:19;;;;;;;34.95;16.38;;;1.70;99.90;;;;;;5065432;28;20077;-73
2021/12/28 02:01:56;;;;;;;35.35;16.95;;;1.70;99.90;;;;;;5032938;28;20041;-73
2021/12/28 02:04:27;;;;;;;33.92;16.98;;;1.70;99.90;;;;;;5031604;28;20057;-73
2021/12/28 02:06:57;;;;;;;38.63;17.42;;;1.80;99.90;;;;;;5032009;28;20046;-73
2021/12/28 02:09:26;;;;;;;36.80;16.30;;;1.90;99.90;;;;;;5033389;28;20551;-74
2021/12/28 02:11:57;;;;;;;34.58;17.05;;;1.70;99.90;;;;;;5031881;28;20396;-74
2021/12/28 02:14:25;;;;;;;35.22;17.20;;;1.70;99.90;;;;;;5033112;28;20068;-74
2021/12/28 02:16:57;;;;;;;35.38;17.25;;;1.70;99.90;;;;;;5033276;28;20045;-74
2021/12/28 02:19:24;;;;;;;36.13;16.98;;;1.80;99.90;;;;;;5031762;28;20050;-73
2021/12/28 02:21:55;;;;;;;33.70;16.38;;;1.80;99.90;;;;;;5031631;28;20037;-74
2021/12/28 02:24:26;;;;;;;30.73;15.95;;;1.80;99.90;;;;;;5036151;28;20037;-73
2021/12/28 02:26:53;;;;;;;33.70;16.45;;;1.80;99.90;;;;;;5037566;28;20569;-73
2021/12/28 02:29:45;;;;;;;33.72;16.75;;;1.80;99.90;;;;;;5036051;28;20049;-73
2021/12/28 02:32:15;;;;;;;30.45;15.20;;;1.80;99.90;;;;;;5036033;28;20080;-73
2021/12/28 02:34:45;;;;;;;34.08;16.77;;;1.70;99.90;;;;;;5036817;28;20073;-73
2021/12/28 02:37:18;;;;;;;29.05;15.23;;;1.80;99.90;;;;;;5035848;28;20515;-73
2021/12/28 02:39:48;;;;;;;24.92;13.23;;;1.70;99.90;;;;;;5037170;28;20112;-73
2021/12/28 02:42:18;;;;;;;30.05;15.20;;;1.70;99.90;;;;;;5035894;28;20107;-73
2021/12/28 02:45:02;;;;;;;28.48;14.15;;;1.70;99.90;;;;;;5035607;28;20069;-73
2021/12/28 02:47:41;;;;;;;27.50;14.73;;;1.80;99.90;;;;;;5035443;28;20535;-73
2021/12/28 02:50:15;;;;;;;26.98;14.98;;;1.70;99.90;;;;;;5036614;28;20132;-73
2021/12/28 02:52:45;;;;;;;28.25;15.02;;;1.70;99.90;;;;;;5035792;28;20045;-74
2021/12/28 02:55:15;;;;;;;32.45;16.08;;;1.80;99.90;;;;;;5034943;28;20116;-73
2021/12/28 02:57:58;;;;;;;34.15;16.08;;;1.80;99.90;;;;;;5035189;28;20042;-73
2021/12/28 03:00:44;;;;;;;28.83;14.73;;;1.90;99.90;;;;;;5034946;28;20051;-73
2021/12/28 03:03:21;;;;;;;29.60;15.27;;;1.90;99.90;;;;;;5036717;28;20464;-73
2021/12/28 03:05:50;;;;;;;28.05;14.23;;;1.70;99.90;;;;;;5035175;28;20049;-73
2021/12/28 03:08:34;;;;;;;23.10;13.13;;;1.70;99.90;;;;;;5036773;28;20391;-73
2021/12/28 03:11:06;;;;;;;26.73;13.93;;;1.60;99.90;;;;;;5036493;28;20116;-73
2021/12/28 03:13:49;;;;;;;26.77;13.88;;;1.70;99.90;;;;;;5035888;28;20041;-73
2021/12/28 03:16:24;;;;;;;25.48;12.93;;;1.80;99.90;;;;;;5034966;28;20073;-74
2021/12/28 03:18:53;;;;;;;26.50;13.52;;;1.80;99.90;;;;;;5036502;28;20442;-74
2021/12/28 03:21:23;;;;;;;24.02;12.88;;;1.80;99.90;;;;;;5037010;28;20435;-73
2021/12/28 03:23:58;;;;;;;26.60;13.40;;;1.70;99.90;;;;;;5036899;28;20136;-74
2021/12/28 03:26:39;;;;;;;25.38;13.25;;;1.80;99.90;;;;;;5038143;28;20072;-73
2021/12/28 03:29:12;;;;;;;24.70;12.90;;;1.80;99.90;;;;;;5034615;28;20050;-74
2021/12/28 03:31:42;;;;;;;26.58;13.30;;;1.70;99.90;;;;;;5036738;28;20042;-74
2021/12/28 03:34:34;;;;;;;28.50;13.98;;;1.70;99.90;;;;;;5034803;28;20069;-74
2021/12/28 03:37:13;;;;;;;25.02;12.35;;;1.60;99.90;;;;;;5035906;28;20064;-74
2021/12/28 03:39:44;;;;;;;27.42;13.80;;;1.70;99.90;;;;;;5035526;28;20121;-74
2021/12/28 03:42:24;;;;;;;25.73;13.07;;;1.70;99.90;;;;;;5034239;28;20385;-74
2021/12/28 03:44:52;;;;;;;25.45;13.02;;;1.80;99.90;;;;;;5034501;28;20049;-74
2021/12/28 03:47:21;;;;;;;26.35;13.18;;;1.70;99.90;;;;;;5035067;28;20431;-74
2021/12/28 03:49:52;;;;;;;26.67;13.55;;;1.80;99.90;;;;;;5034799;28;20104;-74
2021/12/28 03:52:21;;;;;;;27.38;14.00;;;1.80;99.90;;;;;;5034122;28;20054;-74
2021/12/28 03:55:13;;;;;;;30.92;15.13;;;1.70;99.90;;;;;;5034335;28;20053;-74
2021/12/28 03:58:04;;;;;;;30.02;15.75;;;1.80;99.90;;;;;;5035523;28;20041;-74
2021/12/28 04:00:35;;;;;;;28.90;14.50;;;1.80;99.90;;;;;;5033494;28;20128;-74
2021/12/28 04:03:06;;;;;;;33.05;15.57;;;1.80;99.90;;;;;;5035437;28;20407;-74
2021/12/28 04:05:35;;;;;;;32.15;14.65;;;1.80;99.90;;;;;;5035253;28;20092;-74
2021/12/28 04:08:07;;;;;;;28.83;14.95;;;1.80;99.90;;;;;;5033970;28;20041;-74
2021/12/28 04:10:52;;;;;;;27.95;14.40;;;1.80;99.90;;;;;;5034891;28;20045;-74
2021/12/28 04:13:29;;;;;;;24.77;12.53;;;1.90;99.90;;;;;;5035190;28;20583;-74
2021/12/28 04:15:56;;;;;;;28.50;14.05;;;1.90;99.90;;;;;;5033647;28;20076;-74
2021/12/28 04:18:47;;;;;;;27.65;14.70;;;1.80;99.90;;;;;;5035371;28;20045;-74
2021/12/28 04:21:15;;;;;;;30.35;15.27;;;1.80;99.90;;;;;;5033302;28;20041;-74
2021/12/28 04:23:52;;;;;;;31.17;14.25;;;1.80;99.90;;;;;;5033769;28;20040;-74
2021/12/28 04:26:28;;;;;;;32.42;15.35;;;1.90;99.90;;;;;;5034897;28;20060;-74
2021/12/28 04:28:58;;;;;;;30.48;14.20;;;1.90;99.90;;;;;;5033770;28;20119;-74
2021/12/28 04:31:30;;;;;;;29.00;13.60;;;1.90;99.90;;;;;;5033549;28;20049;-74
2021/12/28 04:33:59;;;;;;;27.23;13.23;;;1.80;99.90;;;;;;5034776;28;20041;-74
2021/12/28 04:36:30;;;;;;;27.15;13.68;;;1.80;99.90;;;;;;5034634;28;20463;-74
2021/12/28 04:39:06;;;;;;;28.60;13.65;;;1.70;99.90;;;;;;5034940;28;20048;-74
2021/12/28 04:41:38;;;;;;;30.08;13.90;;;1.70;99.90;;;;;;5034698;28;20133;-74
2021/12/28 04:44:07;;;;;;;30.52;14.27;;;1.70;99.90;;;;;;5034552;28;20125;-74
2021/12/28 04:46:35;;;;;;;31.13;13.93;;;1.80;99.90;;;;;;5032834;28;20132;-74
2021/12/28 04:49:06;;;;;;;34.25;13.98;;;1.90;99.90;;;;;;5033144;28;20041;-74
2021/12/28 04:51:36;;;;;;;31.55;14.85;;;1.90;99.90;;;;;;5066230;28;20054;-74
2021/12/28 04:54:06;;;;;;;30.35;13.45;;;1.80;99.90;;;;;;5033409;28;20045;-74
2021/12/28 04:56:43;;;;;;;32.92;13.98;;;1.80;99.90;;;;;;5034446;28;20549;-74
2021/12/28 04:59:11;;;;;;;31.35;14.18;;;1.90;99.90;;;;;;5033925;28;20103;-74
2021/12/28 05:01:42;;;;;;;32.97;13.65;;;2.00;99.90;;;;;;5032609;28;20042;-74
2021/12/28 05:04:11;;;;;;;28.90;13.98;;;1.90;99.90;;;;;;5032750;28;20084;-74
2021/12/28 05:06:41;;;;;;;30.85;13.32;;;2.00;99.90;;;;;;5032919;28;20069;-74
2021/12/28 05:09:15;;;;;;;31.17;13.35;;;2.10;99.90;;;;;;5033885;28;20033;-74
2021/12/28 05:11:43;;;;;;;29.38;13.35;;;1.90;99.90;;;;;;5034026;28;20120;-74
2021/12/28 05:14:41;;;;;;;30.13;13.32;;;2.00;99.90;;;;;;5033979;28;20120;-74
2021/12/28 05:17:12;;;;;;;27.67;12.73;;;2.10;99.90;;;;;;5034002;28;20045;-73
2021/12/28 05:20:05;;;;;;;28.50;13.68;;;1.90;99.90;;;;;;5032138;28;20131;-73
2021/12/28 05:22:38;;;;;;;28.85;12.57;;;1.90;99.90;;;;;;5032335;28;20045;-73
2021/12/28 05:25:07;;;;;;;29.98;12.85;;;1.90;99.90;;;;;;5033277;28;20073;-73
2021/12/28 05:27:43;;;;;;;32.05;13.68;;;1.90;99.90;;;;;;5033334;28;20131;-73
2021/12/28 05:30:35;;;;;;;30.15;14.40;;;2.00;99.90;;;;;;5033617;28;20053;-74
2021/12/28 05:33:04;;;;;;;31.23;13.55;;;1.70;99.90;;;;;;5032346;28;20112;-73
2021/12/28 05:35:34;;;;;;;32.15;14.82;;;1.80;99.90;;;;;;5032614;28;20515;-74
2021/12/28 05:38:03;;;;;;;27.15;12.32;;;2.10;99.90;;;;;;5032305;28;20144;-73
2021/12/28 05:40:32;;;;;;;29.40;12.90;;;1.90;99.90;;;;;;5033180;28;20037;-74
2021/12/28 05:43:24;;;;;;;31.13;13.88;;;1.80;99.90;;;;;;5033612;28;20045;-74
2021/12/28 05:45:52;;;;;;;29.13;12.77;;;1.80;99.90;;;;;;5032161;28;20137;-74
2021/12/28 05:48:24;;;;;;;28.00;12.82;;;1.80;99.90;;;;;;5033106;28;20041;-73
2021/12/28 05:50:51;;;;;;;33.40;14.38;;;1.80;99.90;;;;;;5033107;28;20063;-73
2021/12/28 05:53:21;;;;;;;28.50;13.95;;;1.80;99.90;;;;;;5033174;28;20041;-73
2021/12/28 05:55:56;;;;;;;24.42;11.85;;;1.80;99.90;;;;;;5033305;28;20116;-74
2021/12/28 05:58:51;;;;;;;30.70;13.85;;;1.80;99.90;;;;;;5032910;28;20483;-74
2021/12/28 06:01:19;;;;;;;31.05;13.95;;;1.80;99.90;;;;;;5028991;28;20124;-73
2021/12/28 06:03:49;;;;;;;31.35;13.98;;;1.90;99.90;;;;;;5035011;28;20064;-73
2021/12/28 06:06:28;;;;;;;31.92;14.52;;;1.90;99.90;;;;;;5033122;28;20120;-73
2021/12/28 06:09:02;;;;;;;30.77;14.43;;;1.90;99.90;;;;;;5038830;28;20029;-74
2021/12/28 06:12:22;;;;;;;29.48;14.32;;;1.90;99.90;;;;;;5051862;28;20475;-74
2021/12/28 06:14:54;;;;;;;30.65;13.65;;;1.80;99.90;;;;;;5052957;28;20041;-73
2021/12/28 06:17:37;;;;;;;32.92;14.73;;;1.80;99.90;;;;;;5051622;28;20131;-74
2021/12/28 06:20:09;;;;;;;27.55;14.27;;;1.70;99.90;;;;;;5052980;28;20476;-74
2021/12/28 06:22:36;;;;;;;28.38;13.75;;;1.70;99.90;;;;;;5052486;28;20133;-74
2021/12/28 06:25:29;;;;;;;30.35;13.20;;;1.70;99.90;;;;;;5037343;28;20038;-74
2021/12/28 06:27:59;;;;;;;27.80;13.77;;;1.70;99.90;;;;;;5051713;28;20076;-74
2021/12/28 06:30:30;;;;;;;31.23;15.05;;;1.70;99.90;;;;;;5049805;28;20048;-74
2021/12/28 06:33:02;;;;;;;27.15;13.93;;;1.70;99.90;;;;;;5051656;28;20163;-73
2021/12/28 06:35:32;;;;;;;35.65;16.85;;;1.70;99.90;;;;;;5051332;28;20136;-74
2021/12/28 06:38:01;;;;;;;34.30;15.75;;;1.80;99.90;;;;;;5051467;28;20069;-73
2021/12/28 06:40:33;;;;;;;35.55;16.27;;;1.90;99.90;;;;;;5052857;28;20047;-73
2021/12/28 06:43:26;;;;;;;35.30;17.48;;;2.10;99.90;;;;;;5051478;28;20045;-73
2021/12/28 06:45:55;;;;;;;33.08;15.23;;;1.90;99.90;;;;;;5053186;28;20517;-73
2021/12/28 06:48:25;;;;;;;34.25;16.63;;;1.70;99.90;;;;;;5051024;28;20107;-73
2021/12/28 06:50:52;;;;;;;27.05;14.18;;;1.70;99.90;;;;;;5052452;28;20048;-73
2021/12/28 06:53:45;;;;;;;30.33;15.10;;;1.70;99.90;;;;;;5053021;28;20465;-73
2021/12/28 06:56:22;;;;;;;29.58;14.73;;;1.80;99.90;;;;;;5051495;28;20495;-73
2021/12/28 06:58:52;;;;;;;29.80;15.07;;;1.90;99.90;;;;;;5052883;28;20073;-73
2021/12/28 07:01:45;;;;;;;30.60;16.48;;;2.00;99.90;;;;;;5052133;28;20056;-73
2021/12/28 07:04:15;;;;;;;25.15;12.40;;;2.00;99.90;;;;;;5051205;28;20041;-73
2021/12/28 07:06:48;;;;;;;23.70;13.32;;;2.00;99.90;;;;;;5052744;28;20039;-73
2021/12/28 07:09:16;;;;;;;30.40;14.57;;;1.90;99.90;;;;;;5052073;28;20403;-73
2021/12/28 07:11:46;;;;;;;30.75;15.18;;;2.10;99.90;;;;;;5055955;28;20037;-73
2021/12/28 07:14:19;;;;;;;30.17;14.45;;;2.10;99.90;;;;;;5056047;28;20037;-73
2021/12/28 07:16:48;;;;;;;24.30;12.43;;;2.10;99.90;;;;;;5056370;28;20095;-73
2021/12/28 07:19:17;;;;;;;24.63;13.07;;;2.00;99.90;;;;;;5055886;28;20041;-73
2021/12/28 07:21:55;;;;;;;25.30;13.57;;;1.90;99.90;;;;;;5056143;28;20114;-73
2021/12/28 07:24:23;;;;;;;27.65;13.80;;;2.00;99.90;;;;;;5055873;28;20121;-72
2021/12/28 07:26:52;;;;;;;26.67;14.05;;;2.10;99.90;;;;;;5054248;28;20064;-72
2021/12/28 07:29:28;;;;;;;31.00;15.05;;;2.00;99.90;;;;;;5055875;28;20123;-72
2021/12/28 07:31:56;;;;;;;26.02;14.00;;;2.10;99.90;;;;;;5041015;28;20487;-74
2021/12/28 07:34:34;;;;;;;25.10;13.50;;;2.10;99.90;;;;;;5034717;28;20565;-74
2021/12/28 07:37:09;;;;;;;24.23;13.05;;;1.80;99.90;;;;;;5067795;28;20049;-74
2021/12/28 07:39:37;;;;;;;17.95;9.75;;;1.80;99.90;;;;;;5036009;28;20128;-74
2021/12/28 07:42:14;;;;;;;17.48;10.63;;;1.80;99.90;;;;;;5035812;28;20434;-75
2021/12/28 07:44:47;;;;;;;19.70;11.25;;;1.70;99.90;;;;;;5035757;28;20492;-75
2021/12/28 07:47:14;;;;;;;21.55;11.82;;;2.00;99.90;;;;;;5034339;28;20132;-75
2021/12/28 07:49:42;;;;;;;21.90;12.20;;;2.00;99.90;;;;;;5033182;28;20052;-75
2021/12/28 07:52:13;;;;;;;22.98;13.15;;;2.00;99.90;;;;;;5034217;28;20042;-74
2021/12/28 07:55:07;;;;;;;24.60;13.40;;;1.90;99.90;;;;;;5035041;28;20397;-75
2021/12/28 07:57:37;;;;;;;23.55;12.60;;;2.00;99.90;;;;;;5035207;28;20038;-75
2021/12/28 08:00:13;;;;;;;25.65;13.80;;;2.00;99.90;;;;;;5025538;28;20050;-75
2021/12/28 08:02:43;;;;;;;;;;;2.10;99.90;;;;;;5035460;28;20155;-75
2021/12/28 08:05:17;;;;;;;27.92;15.10;;;2.10;99.90;;;;;;5032831;28;19925;-75
2021/12/28 08:07:45;;;;;;;27.80;16.40;;;2.10;99.90;;;;;;5033645;28;20076;-75
2021/12/28 08:10:15;;;;;;;32.50;17.15;;;2.20;99.90;;;;;;5035116;28;20049;-75
2021/12/28 08:12:43;;;;;;;33.45;17.35;;;2.20;99.90;;;;;;5034497;28;20103;-75
2021/12/28 08:15:14;;;;;;;31.17;17.90;;;2.20;99.90;;;;;;5033854;28;20045;-75
2021/12/28 08:17:47;;;;;;;32.80;17.67;;;2.40;99.90;;;;;;5035272;28;20041;-75
2021/12/28 08:20:16;;;;;;;33.30;17.88;;;2.30;99.90;;;;;;5035208;28;20073;-75
2021/12/28 08:22:45;;;;;;;34.35;17.50;;;2.30;99.90;;;;;;5017410;28;20072;-76
2021/12/28 08:25:17;;;;;;;35.83;17.50;;;2.20;99.90;;;;;;5033581;28;20049;-75
2021/12/28 08:27:49;;;;;;;32.65;17.30;;;2.20;99.90;;;;;;5017232;28;20132;-75
2021/12/28 08:30:19;;;;;;;29.75;16.77;;;2.20;99.90;;;;;;5033414;28;20144;-75
2021/12/28 08:32:49;;;;;;;32.75;17.67;;;2.10;99.90;;;;;;5033841;28;20041;-75
2021/12/28 08:35:22;;;;;;;32.58;16.75;;;2.30;99.90;;;;;;5033606;28;20075;-75
2021/12/28 08:37:51;;;;;;;33.25;17.13;;;2.00;99.90;;;;;;5033448;28;20049;-75
2021/12/28 08:40:20;;;;;;;35.05;18.75;;;2.10;99.90;;;;;;5034429;28;20040;-75
2021/12/28 08:42:51;;;;;;;30.83;17.27;;;2.10;99.90;;;;;;5033319;28;20102;-75
2021/12/28 08:45:44;;;;;;;34.15;19.13;;;2.00;99.90;;;;;;5034166;28;20382;-75
2021/12/28 08:48:11;;;;;;;33.05;18.30;;;2.10;99.90;;;;;;5032702;28;20049;-76
2021/12/28 08:50:41;;;;;;;34.92;18.85;;;2.00;99.90;;;;;;5027794;28;20115;-76
2021/12/28 08:53:11;;;;;;;38.85;19.55;;;2.10;99.90;;;;;;5013246;28;20495;-76
2021/12/28 08:55:43;;;;;;;35.90;20.13;;;2.10;99.90;;;;;;5013017;28;20500;-76
2021/12/28 08:58:15;;;;;;;34.47;18.63;;;2.20;99.90;;;;;;5014952;28;20069;-77
2021/12/28 09:00:44;;;;;;;37.65;19.55;;;2.40;99.90;;;;;;5012853;28;20488;-77
2021/12/28 09:03:16;;;;;;;42.15;20.25;;;2.30;99.90;;;;;;5014369;28;20121;-75
2021/12/28 09:05:47;;;;;;;38.50;20.25;;;2.30;99.90;;;;;;5046109;28;20050;-77
2021/12/28 09:08:19;;;;;;;38.47;20.70;;;2.30;99.90;;;;;;5023130;28;20095;-75
2021/12/28 09:10:48;;;;;;;42.78;22.15;;;2.30;99.90;;;;;;5013150;28;20471;-78
2021/12/28 09:13:20;;;;;;;37.30;19.42;;;2.20;99.90;;;;;;5014207;28;20041;-77
2021/12/28 09:15:48;;;;;;;46.47;22.63;;;2.20;99.90;;;;;;5016524;28;20124;-77
2021/12/28 09:18:17;;;;;;;38.25;20.55;;;2.20;99.90;;;;;;5014340;28;20042;-77
2021/12/28 09:20:50;;;;;;;50.03;21.60;;;2.20;99.90;;;;;;5014109;28;20065;-77
2021/12/28 09:23:18;;;;;;;42.22;21.33;;;2.30;99.90;;;;;;5014043;28;20046;-77
2021/12/28 09:26:09;;;;;;;41.08;21.02;;;2.40;99.90;;;;;;5014285;28;20514;-77
2021/12/28 09:29:10;;;;;;;41.50;22.17;;;2.30;99.90;;;;;;5014077;28;20391;-77
2021/12/28 09:31:37;;;;;;;39.25;21.95;;;2.40;99.90;;;;;;5012170;28;20081;-77
2021/12/28 09:37:37;;;;;;;44.22;22.30;;;2.50;99.90;;;;;;5013599;28;20050;-76
2021/12/28 09:40:32;;;;;;;40.42;21.17;;;2.50;99.90;;;;;;5011869;28;20046;-76
2021/12/28 09:42:59;;;;;;;46.88;23.98;;;2.20;99.90;;;;;;5013646;28;20480;-76
2021/12/28 09:45:56;;;;;;;44.08;22.27;;;2.20;99.90;;;;;;5013546;28;20407;-76
2021/12/28 09:48:23;;;;;;;42.92;22.75;;;2.30;99.90;;;;;;5012512;28;20038;-75
2021/12/28 09:50:51;;;;;;;38.83;21.60;;;2.30;99.90;;;;;;5013416;28;20084;-76
2021/12/28 09:53:21;;;;;;;43.58;22.55;;;2.30;99.90;;;;;;5013099;28;20041;-76
2021/12/28 09:56:14;;;;;;;39.95;20.30;;;2.40;99.90;;;;;;5045367;28;20046;-76
2021/12/28 09:58:48;;;;;;;41.70;21.63;;;2.40;99.90;;;;;;5012848;28;20061;-78
2021/12/28 10:01:15;;;;;;;33.40;17.85;;;2.40;99.90;;;;;;5011093;28;20085;-76
2021/12/28 10:03:44;;;;;;;35.40;19.25;;;2.40;99.90;;;;;;5012767;28;20554;-76
2021/12/28 10:06:20;;;;;;;40.00;20.80;;;2.50;99.90;;;;;;5013771;28;20433;-76
2021/12/28 10:09:13;;;;;;;35.88;19.75;;;2.40;99.90;;;;;;5013611;28;20121;-76
2021/12/28 10:11:49;;;;;;;44.05;22.77;;;3.00;99.90;;;;;;5021041;28;20369;-77
2021/12/28 10:14:26;;;;;;;35.72;19.27;;;2.40;99.90;;;;;;5015998;28;20049;-77
2021/12/28 10:17:29;;;;;;;33.15;18.38;;;2.60;99.90;;;;;;5013318;28;20038;-78
2021/12/28 10:19:57;;;;;;;30.23;17.80;;;2.40;99.90;;;;;;5013603;28;20038;-78
2021/12/28 10:22:53;;;;;;;34.75;19.05;;;2.50;99.90;;;;;;5011351;28;20046;-78
2021/12/28 10:25:27;;;;;;;37.03;20.25;;;2.60;99.90;;;;;;5012100;28;20058;-78
2021/12/28 10:28:01;;;;;;;34.72;18.67;;;2.80;99.90;;;;;;5018005;28;20069;-79
2021/12/28 10:30:34;;;;;;;32.33;18.88;;;2.30;99.90;;;;;;5031725;28;20452;-79
2021/12/28 10:33:08;;;;;;;35.35;19.60;;;2.40;99.90;;;;;;5016197;28;20120;-78
2021/12/28 10:35:41;;;;;;;35.15;19.33;;;2.50;99.90;;;;;;5016700;28;21487;-79
2021/12/28 10:38:12;;;;;;;31.92;18.27;;;2.50;99.90;;;;;;5031025;28;20104;-78
2021/12/28 10:40:45;;;;;;;34.63;18.77;;;2.50;99.90;;;;;;5032508;28;20045;-79
2021/12/28 10:43:18;;;;;;;32.65;18.58;;;2.40;99.90;;;;;;5032201;28;20068;-79
2021/12/28 10:45:51;;;;;;;38.10;20.55;;;2.60;99.90;;;;;;5036751;28;20037;-78
2021/12/28 10:48:22;;;;;;;34.22;19.55;;;2.50;99.90;;;;;;5036362;28;20053;-78
2021/12/28 10:51:05;;;;;;;36.72;19.88;;;2.40;99.90;;;;;;5036469;28;20049;-79
2021/12/28 10:54:12;;;;;;;35.22;18.02;;;2.30;99.90;;;;;;5036825;28;20112;-79
2021/12/28 10:57:01;;;;;;;36.28;18.58;;;2.20;99.90;;;;;;5068642;28;20045;-78
2021/12/28 10:59:33;;;;;;;36.33;18.73;;;2.30;99.90;;;;;;5035329;28;20045;-78
2021/12/28 11:02:01;;;;;;;55.08;30.00;;;2.30;99.90;;;;;;5036587;28;20431;-78
2021/12/28 11:04:36;;;;;;;37.58;19.65;;;2.50;99.90;;;;;;5036371;28;20052;-79
2021/12/28 11:07:06;;;;;;;35.63;20.38;;;2.60;99.90;;;;;;5035398;28;20050;-78
2021/12/28 11:09:49;;;;;;;35.28;19.98;;;2.50;99.90;;;;;;5035533;28;20400;-78
2021/12/28 11:12:17;;;;;;;39.60;20.42;;;2.40;99.90;;;;;;5036475;28;20125;-78
2021/12/28 11:14:45;;;;;;;34.00;18.45;;;2.40;99.90;;;;;;5035918;28;20048;-78
2021/12/28 11:17:12;;;;;;;32.22;17.88;;;2.40;99.90;;;;;;5018660;28;20046;-79
2021/12/28 11:19:41;;;;;;;32.85;17.77;;;2.20;99.90;;;;;;5036092;28;20407;-79
2021/12/28 11:22:12;;;;;;;28.23;16.02;;;2.40;99.90;;;;;;5034622;28;20042;-78
2021/12/28 11:24:47;;;;;;;32.35;17.67;;;2.30;99.90;;;;;;5034671;28;20107;-79
2021/12/28 11:27:21;;;;;;;;;;;2.40;99.90;;;;;;5036338;28;20432;-79
2021/12/28 11:30:10;;;;;;;29.80;15.55;;;2.50;99.90;;;;;;5035879;28;20008;-78
2021/12/28 11:32:39;;;;;;;36.80;20.85;;;2.50;99.90;;;;;;5034841;28;20045;-78
2021/12/28 11:35:08;;;;;;;37.45;20.75;;;2.60;99.90;;;;;;5036088;28;20395;-78
2021/12/28 11:37:38;;;;;;;41.50;22.30;;;2.70;99.90;;;;;;5034815;28;20073;-78
2021/12/28 11:40:10;;;;;;;37.28;20.35;;;2.60;99.90;;;;;;5034620;28;20072;-78
2021/12/28 11:42:39;;;;;;;38.55;20.77;;;2.50;99.90;;;;;;5035541;28;20077;-79
2021/12/28 11:45:09;;;;;;;40.33;21.55;;;2.60;99.90;;;;;;5034550;28;20042;-78
2021/12/28 11:47:39;;;;;;;36.88;20.48;;;2.60;99.90;;;;;;5034928;28;20041;-78
2021/12/28 11:50:09;;;;;;;34.90;20.13;;;2.70;99.90;;;;;;5035594;28;20045;-78
2021/12/28 11:52:38;;;;;;;39.67;22.83;;;2.60;99.90;;;;;;5034236;28;20049;-79
2021/12/28 11:55:09;;;;;;;38.40;21.80;;;2.60;99.90;;;;;;5028180;28;20159;-79
2021/12/28 11:57:47;;;;;;;40.38;21.95;;;2.90;99.90;;;;;;5055509;28;20463;-78
2021/12/28 12:00:17;;;;;;;41.30;22.08;;;2.60;99.90;;;;;;5035166;28;20049;-78
2021/12/28 12:02:49;;;;;;;36.67;20.17;;;2.50;99.90;;;;;;5035462;28;20073;-79
2021/12/28 12:05:18;;;;;;;35.05;19.05;;;2.60;99.90;;;;;;5035479;28;20092;-79
2021/12/28 12:08:22;;;;;;;32.78;18.33;;;2.50;99.90;;;;;;5035144;28;20042;-79
2021/12/28 12:11:00;;;;;;;34.95;20.17;;;2.30;99.90;;;;;;5013049;28;20508;-79
2021/12/28 12:13:29;;;;;;;27.95;16.13;;;2.80;99.90;;;;;;5032445;28;20077;-79
2021/12/28 12:16:12;;;;;;;28.67;16.42;;;2.60;99.90;;;;;;5034975;28;20046;-78
2021/12/28 12:18:49;;;;;;;30.50;17.60;;;2.50;99.90;;;;;;5035109;28;20117;-78
2021/12/28 12:21:37;;;;;;;28.88;16.58;;;2.70;99.90;;;;;;5034936;28;20451;-79
2021/12/28 12:24:13;;;;;;;29.88;17.25;;;2.70;99.90;;;;;;5034971;28;20037;-78
2021/12/28 12:26:41;;;;;;;31.27;17.55;;;2.50;99.90;;;;;;5034811;28;20087;-78
2021/12/28 12:29:58;;;;;;;27.48;15.65;;;2.60;99.90;;;;;;5033100;28;20042;-78
2021/12/28 12:33:06;;;;;;;41.90;24.10;;;2.60;99.90;;;;;;5033761;28;20099;-79
2021/12/28 12:36:00;;;;;;;30.35;17.02;;;2.50;99.90;;;;;;5034127;28;20053;-79
2021/12/28 12:38:29;;;;;;;32.92;19.05;;;2.60;99.90;;;;;;5033291;28;20466;-78
2021/12/28 12:41:37;;;;;;;30.23;18.30;;;2.50;99.90;;;;;;5034388;28;20446;-78
2021/12/28 12:44:13;;;;;;;32.33;17.05;;;2.50;99.90;;;;;;5033168;28;20064;-78
2021/12/28 12:46:47;;;;;;;;;;;2.40;99.90;;;;;;5034828;28;20116;-79
2021/12/28 12:49:23;;;;;;;34.28;19.05;;;2.30;99.90;;;;;;5034547;28;19967;-78
2021/12/28 12:51:54;;;;;;;31.13;19.23;;;2.50;99.90;;;;;;5034207;28;20073;-79
2021/12/28 12:54:41;;;;;;;35.05;20.45;;;2.70;99.90;;;;;;5034470;28;20136;-79
2021/12/28 12:57:27;;;;;;;35.13;20.23;;;2.60;99.90;;;;;;5034444;28;20050;-79
2021/12/28 13:00:13;;;;;;;36.45;19.75;;;2.40;99.90;;;;;;5034394;28;20073;-79
2021/12/28 13:02:43;;;;;;;38.78;22.38;;;2.40;99.90;;;;;;5034112;28;20037;-79
2021/12/28 13:05:24;;;;;;;38.40;20.27;;;2.60;99.90;;;;;;5033033;28;20463;-78
2021/12/28 13:07:53;;;;;;;39.47;21.77;;;2.60;99.90;;;;;;5032892;28;20463;-79
2021/12/28 13:10:27;;;;;;;44.72;26.13;;;2.50;99.90;;;;;;5032649;28;20073;-79
2021/12/28 13:12:58;;;;;;;30.75;18.15;;;2.70;99.90;;;;;;5027124;28;20048;-79
2021/12/28 13:15:29;;;;;;;31.77;18.88;;;2.60;99.90;;;;;;5027856;28;20057;-79
2021/12/28 13:18:03;;;;;;;31.73;18.35;;;2.60;99.90;;;;;;5025432;28;20057;-79
2021/12/28 13:20:33;;;;;;;29.30;17.77;;;2.60;99.90;;;;;;5024908;28;20074;-79
2021/12/28 13:23:04;;;;;;;36.63;20.05;;;2.60;99.90;;;;;;5012528;28;20129;-79